Tiempo atmosférico en la estación meteorológica de Láujar De Andarax, Almería (1510 m.)



Fecha
DESCASC
Temp. máxima en grados centígrados (hora)
DESCASC
Temp. mínima en grados centígrados (hora)
DESCASC
Temp. media en grados centígrados
DESCASC
Racha de viento máxima en m/sg (hora)
DESCASC
Velocidad máxima media en intervalos de 10 minutos(hora)
DESCASC
Precipitaciones diarias en mm
DESCASC
Precipitaciones de 00:00 a 06:00 en mm
DESCASC
Precipitaciones de 06:00 a 12:00 en mm
DESCASC
Precipitaciones de 12:00 a 18:00 en mm
DESCASC
Precipitaciones de 18:00 a 24:00 en mm
DESCASC
22-01-2020 5.2 (14:00) 0 (01:10) 2.6 5.83 (13:30) 2.5 (11:00) 9.2 0 4.8 1.2 3.2
21-01-2020 3.1 (13:00) -0.7 (03:20) 1.2 10 (02:10) 3.89 (07:10) 4 0.2 1.8 2 0
20-01-2020 2.6 (12:10) -2.5 (05:20) 0 19.17 (07:20) 11.39 (07:20) 3.8 0 0 3.6 0.2
19-01-2020 7.9 (04:10) -1.2 (-00:0) 3.4 25.83 (09:10) 18.61 (09:50) 0.4 0 0 0.4 0
18-01-2020 8.5 (17:00) 3.6 (00:00) 6 6.67 (04:20) 5.28 (04:20) 0 0 0 0 0
17-01-2020 13.6 (14:10) 3.4 (00:00) 8.5 8.61 (07:50) 4.44 (07:30) 0 0 0 0 0
16-01-2020 10.6 (15:50) 2.7 (00:00) 6.7 10 (16:20) 6.67 (16:40) 0 0 0 0 0
15-01-2020 10.7 (13:50) 2.9 (00:00) 6.8 5.28 (16:10) 3.33 (14:20) 0 0 0 0 0
14-01-2020 12.2 (15:40) 3.8 (00:00) 8 7.5 (13:30) 5 (13:50) 0 0 0 0 0
13-01-2020 11 (15:10) 0.7 (00:00) 5.8 6.67 (14:40) 4.72 (14:30) 0 0 0 0 0
12-01-2020 9.9 (13:30) -0.1 (00:00) 4.9 7.22 (14:50) 4.72 (15:20) 0 0 0 0 0
11-01-2020 8.4 (13:50) 0.5 (00:00) 4.4 7.78 (01:00) 3.89 (01:00) 0 0 0 0 0
10-01-2020 10.4 (15:40) 1.4 (00:00) 5.9 13.61 (20:30) 7.78 (04:00) 0 0 0 0 0
09-01-2020 10 (15:00) 2.5 (00:00) 6.3 11.67 (20:20) 6.94 (20:10) 0 0 0 0 0
08-01-2020 14.5 (12:10) 4.3 (00:00) 9.4 5.83 (15:50) 3.61 (16:00) 0 0 0 0 0
07-01-2020 14.6 (15:30) 6 (00:00) 10.3 4.72 (12:30) 2.5 (12:30) 0 0 0 0 0
06-01-2020 13 (16:40) 4.5 (00:00) 8.8 4.72 (14:10) 3.06 (14:00) 0 0 0 0 0
05-01-2020 12.5 (10:30) 3.3 (00:00) 7.9 5.28 (19:30) 2.5 (03:40) 0 0 0 0 0
04-01-2020 9.9 (11:10) 1.4 (00:00) 5.6 3.89 (15:00) 2.22 (15:00) 0 0 0 0 0
03-01-2020 16.6 (13:50) 8.7 (00:00) 12.7 5 (14:40) 3.06 (14:50) 0 0 0 0 0
02-01-2020 16.5 (09:50) 8.4 (00:00) 12.4 6.11 (13:40) 5 (13:40) 0 0 0 0 0
01-01-2020 17.1 (14:20) 8.3 (00:00) 12.7 5 (13:10) 3.61 (14:10) 0 0 0 0 0
31-12-2019 -- (--) -- (--) -- -- (--) -- (--) 0 0 0 0 0
30-12-2019 -- (--) -- (--) -- -- (--) -- (--) 0 0 0 0 0
29-12-2019 12.3 (14:10) 4.9 (00:00) 8.6 4.17 (15:10) 2.78 (17:00) 0 0 0 0 0
28-12-2019 16.9 (10:50) 9.3 (00:00) 13.1 5.83 (02:10) 2.5 (01:50) 0 0 0 0 0
27-12-2019 17.2 (14:40) 7.5 (00:00) 12.4 5.83 (02:20) 3.61 (02:20) 0 0 0 0 0
26-12-2019 20.5 (13:00) 9.9 (00:00) 15.2 7.22 (13:10) 4.72 (14:00) 0 0 0 0 0
25-12-2019 21.2 (15:20) 12 (00:00) 16.6 11.39 (20:00) 3.89 (18:00) 0 0 0 0 0
24-12-2019 20.5 (10:00) 8.9 (00:00) 14.7 5 (05:10) 3.89 (02:50) 0 0 0 0 0

Gráficas

Temp. máximas Temp. mínimas Temp. medias Precipitaciones Rachas de viento máximas Velocidades máximas media en intervalos de 10 minutos

Datos horarios

Fecha y hora oficial Temperatura (ºC) Velocidad del viento (km/h) Dirección del viento Racha (km/h) Dirección de racha Precipitación (mm) Presión (hPa) Tendencia (hPa) Humedad (%)
2020-01-22 23:00:00 0.8 7 Norte 12 Norte 0.4 -- -- 98
2020-01-22 22:00:00 1.3 2 Sur 12 Sudeste 0.4 -- -- 97
2020-01-22 21:00:00 1 3 Este 9 Este 0.4 -- -- 95
2020-01-22 20:00:00 0.8 3 Este 11 Sudoeste 0.8 -- -- 99
2020-01-22 19:00:00 0.5 0 Calma 8 Sur 0.8 -- -- 99
2020-01-22 18:00:00 2.2 4 Sur 9 Sudeste 0.2 -- -- 98
2020-01-22 17:00:00 2.3 3 Sur 13 Sur 0.4 -- -- 96
2020-01-22 16:00:00 2.7 6 Sur 19 Sudeste 0 -- -- 92
2020-01-22 15:00:00 3 4 Sudeste 19 Sur 0.2 -- -- 94
2020-01-22 14:00:00 5.2 4 Sur 21 Sudeste 0 -- -- 87
2020-01-22 13:00:00 3.8 5 Sur 15 Sur 0.4 -- -- 93
2020-01-22 12:00:00 4.3 7 Sur 17 Sur 2.6 -- -- 89
2020-01-22 11:00:00 4.1 9 Sur 19 Sur 2 -- -- 98
2020-01-22 10:00:00 1.5 4 Sur 18 Sur 0.2 -- -- 100
2020-01-22 09:00:00 0.7 4 Sudeste 18 Sudeste 0 -- -- 100
2020-01-22 08:00:00 0.3 6 Sudeste 16 Sur 0 -- -- 99
2020-01-22 07:00:00 0.4 5 Sudeste 13 Sur 0 -- -- 99
2020-01-22 06:00:00 0.5 5 Sudeste 10 Sudeste 0 -- -- 100
2020-01-22 05:00:00 0.2 5 Sudeste 12 Sur 0 -- -- 100
2020-01-22 04:00:00 0.3 5 Sudeste 10 Sudeste 0 -- -- 100
2020-01-22 03:00:00 0.3 3 Sur 10 Sudeste 0 -- -- 100
2020-01-22 02:00:00 0.1 5 Sudeste 9 Sudeste 0 -- -- 100
2020-01-22 01:00:00 0.1 0 Calma -- -- 0 -- -- 100
2020-01-22 00:00:00 0.3 0 Calma -- -- 0 -- -- 100
2020-01-21 23:00:00 0 0 Calma -- -- 0 -- -- 100
2020-01-21 22:00:00 -0.1 0 Calma 7 Sur 0 -- -- 100
2020-01-21 21:00:00 0 0 Calma 4 Sudoeste 0 -- -- 100
2020-01-21 20:00:00 0.1 0 Calma 4 Sur 0 -- -- 100
2020-01-21 19:00:00 0.3 3 Sur 8 Sur 0 -- -- 100
2020-01-21 18:00:00 0.7 3 Sudoeste 10 Noroeste 0.6 -- -- 100
2020-01-21 17:00:00 0.8 7 Noroeste 12 Noroeste 0 -- -- 99
2020-01-21 16:00:00 1.2 4 Oeste 13 Oeste 0.2 -- -- 99
2020-01-21 15:00:00 1.6 9 Noroeste 12 Oeste 0.4 -- -- 98
2020-01-21 14:00:00 1.7 4 Sudoeste 8 Sudoeste 0.2 -- -- 96
2020-01-21 13:00:00 3.1 2 Sur 6 Sudeste 0.6 -- -- 91
2020-01-21 12:00:00 1.6 2 Noroeste 6 Noroeste 1.8 -- -- 97
2020-01-21 11:00:00 0.3 3 Sudoeste 5 Oeste 0 -- -- 98
2020-01-21 10:00:00 0.1 3 Sudeste 5 Oeste 0 -- -- 98
2020-01-21 09:00:00 -0.5 3 Oeste 12 Sur 0 -- -- 98
2020-01-21 08:00:00 0 7 Sur 29 Sur 0 -- -- 95
2020-01-21 07:00:00 0.1 13 Sudeste 33 Sudeste 0 -- -- 89
2020-01-21 06:00:00 0.5 2 Sudoeste 33 Este 0 -- -- 93
2020-01-21 05:00:00 0.8 7 Este 20 Nordeste 0 -- -- 90
2020-01-21 04:00:00 0.5 5 Sudeste 14 Sudeste 0 -- -- 97
2020-01-21 03:00:00 -0.4 3 Sur 36 Sudeste 0 -- -- 97
2020-01-21 02:00:00 0.4 5 Sudeste 16 Sur 0.2 -- -- 90
2020-01-21 01:00:00 0.3 5 Oeste 29 Sur 0 -- -- 92
2020-01-21 00:00:00 0.3 9 Sudeste 35 Este 0 -- -- 94
2020-01-20 23:00:00 0 11 Norte 37 Sudeste 0 -- -- 96
2020-01-20 22:00:00 0 7 Este 43 Sudoeste 0.2 -- -- 96
2020-01-20 21:00:00 0.6 8 Sudoeste 36 Sur 0 -- -- 92
2020-01-20 20:00:00 0.2 9 Sur 36 Sur 0 -- -- 96
2020-01-20 19:00:00 -0.4 3 Sudeste 18 Sur 0 -- -- 97
2020-01-20 18:00:00 -0.1 8 Norte 26 Este 0.2 -- -- 97
2020-01-20 17:00:00 0.1 9 Este 31 Sudeste 0.2 -- -- 96
2020-01-20 16:00:00 0.1 10 Este 39 Sudeste 0.8 -- -- 97
2020-01-20 15:00:00 0.4 11 Sur 39 Sur 0.8 -- -- 96
2020-01-20 14:00:00 0.2 13 Sudeste 40 Este 0.2 -- -- 96
2020-01-20 13:00:00 1.2 12 Sur 49 Sudeste 1.4 -- -- 90
2020-01-20 12:00:00 1.6 14 Este 40 Sudeste 0 -- -- 81
2020-01-20 11:00:00 0.4 6 Sur 25 Sudeste 0 -- -- 80
2020-01-20 10:00:00 -0.3 8 Sudeste 45 Nordeste 0 -- -- 71
2020-01-20 09:00:00 -1.1 11 Este 45 Sudeste 0 -- -- 72
2020-01-20 08:00:00 -0.9 26 Este 69 Este 0 -- -- 71
2020-01-20 07:00:00 -2 32 Este 67 Este 0 -- -- 80
2020-01-20 06:00:00 -2.2 9 Este 29 Nordeste 0 -- -- 89
2020-01-20 05:00:00 -2.2 14 Sur 33 Sur 0 -- -- 94
2020-01-20 04:00:00 -2.2 6 Sur 32 Sudoeste 0 -- -- 97
2020-01-20 03:00:00 -2.2 8 Sur 31 Sudeste 0 -- -- 97
2020-01-20 02:00:00 -2.1 8 Sur 29 Sur 0 -- -- 97
2020-01-20 01:00:00 -1.7 5 Sudeste 28 Sur 0 -- -- 94
2020-01-20 00:00:00 -1.2 9 Sur 31 Sur 0 -- -- 89
2020-01-19 23:00:00 -0.3 8 Sudeste 30 Este 0 -- -- 79
2020-01-19 22:00:00 -0.7 14 Sudeste 37 Sur 0 -- -- 79
2020-01-19 21:00:00 -0.3 10 Sudeste 38 Sur 0 -- -- 76
2020-01-19 20:00:00 -0.5 10 Sudeste 33 Sudeste 0 -- -- 85
2020-01-19 19:00:00 0.4 9 Nordeste 27 Sur 0 -- -- 84
2020-01-19 18:00:00 0.6 10 Este 39 Este 0 -- -- 80
2020-01-19 17:00:00 1 12 Norte 50 Oeste 0 -- -- 83
2020-01-19 16:00:00 1.5 23 Oeste 40 Oeste 0 -- -- 79
2020-01-19 15:00:00 1.9 7 Este 63 Nordeste 0 -- -- 77
2020-01-19 14:00:00 2.1 49 Este 79 Nordeste 0.4 -- -- 68
2020-01-19 13:00:00 1.5 12 Sudeste 37 Norte 0 -- -- 76
2020-01-19 12:00:00 1.4 20 Noroeste 39 Noroeste 0 -- -- 76
2020-01-19 11:00:00 1.1 18 Nordeste 88 Nordeste 0 -- -- 81
2020-01-19 10:00:00 2.2 57 Nordeste 93 Nordeste 0 -- -- 71
2020-01-19 09:00:00 1.9 62 Nordeste 82 Nordeste 0 -- -- 68
2020-01-19 08:00:00 1.4 48 Nordeste 75 Nordeste 0 -- -- 76
2020-01-19 07:00:00 2.1 42 Este 79 Nordeste 0 -- -- 77
2020-01-19 06:00:00 2.9 52 Nordeste 86 Nordeste 0 -- -- 63
2020-01-19 05:00:00 5.2 45 Nordeste 88 Nordeste 0 -- -- 50
2020-01-19 04:00:00 7.2 45 Nordeste 69 Nordeste 0 -- -- 39
2020-01-19 03:00:00 5.5 5 Noroeste 14 Oeste 0 -- -- 99
2020-01-19 02:00:00 5.9 4 Sudoeste 17 Norte 0 -- -- 98
2020-01-19 01:00:00 5.7 6 Noroeste 18 Norte 0 -- -- 97
2020-01-19 00:00:00 4.6 10 Norte 18 Noroeste 0 -- -- 97
2020-01-18 23:00:00 4.8 3 Oeste 14 Nordeste 0 -- -- 94
2020-01-18 22:00:00 4.7 4 Nordeste 17 Sudeste 0 -- -- 97
2020-01-18 21:00:00 4.2 5 Noroeste 9 Noroeste 0 -- -- 94
2020-01-18 20:00:00 3.9 4 Este 19 Norte 0 -- -- 92
2020-01-18 19:00:00 4.4 13 Norte 21 Noroeste 0 -- -- 94
2020-01-18 18:00:00 5 5 Noroeste 16 Norte 0 -- -- 84
2020-01-18 17:00:00 8.5 14 Norte 18 Noroeste 0 -- -- 70
2020-01-18 16:00:00 6.8 8 Noroeste 12 Noroeste 0 -- -- 84
2020-01-18 15:00:00 6.2 2 Noroeste 9 Noroeste 0 -- -- 89
2020-01-18 14:00:00 4.9 4 Nordeste 15 Noroeste 0 -- -- 88
2020-01-18 13:00:00 5.5 9 Noroeste 13 Noroeste 0 -- -- 85
2020-01-18 12:00:00 6.1 8 Norte 15 Noroeste 0 -- -- 71
2020-01-18 11:00:00 8.1 10 Noroeste 17 Noroeste 0 -- -- 54
2020-01-18 10:00:00 7.8 14 Noroeste 22 Noroeste 0 -- -- 53
2020-01-18 09:00:00 5.7 15 Norte 21 Norte 0 -- -- 59
2020-01-18 08:00:00 4.8 11 Norte 20 Noroeste 0 -- -- 62
2020-01-18 07:00:00 5 15 Norte 24 Norte 0 -- -- 63
2020-01-18 06:00:00 5.6 17 Norte 21 Norte 0 -- -- 61
2020-01-18 05:00:00 5.2 17 Norte 24 Noroeste 0 -- -- 63
2020-01-18 04:00:00 5 18 Norte 21 Norte 0 -- -- 63
2020-01-18 03:00:00 5.8 5 Norte 17 Norte 0 -- -- 58
2020-01-18 02:00:00 7.4 4 Norte 17 Norte 0 -- -- 51
2020-01-18 01:00:00 7.1 11 Norte 18 Norte 0 -- -- 53
2020-01-18 00:00:00 7.5 12 Norte 18 Norte 0 -- -- 57
2020-01-17 23:00:00 6.8 8 Nordeste 12 Norte 0 -- -- 56
2020-01-17 22:00:00 6 9 Nordeste 13 Norte 0 -- -- 61
2020-01-17 21:00:00 5.6 4 Nordeste 6 Nordeste 0 -- -- 65
2020-01-17 20:00:00 5.7 2 Nordeste 5 Sudeste 0 -- -- 66
2020-01-17 19:00:00 6 2 Sur 9 Noroeste 0 -- -- 69
2020-01-17 18:00:00 8.3 5 Noroeste 14 Noroeste 0 -- -- 59
2020-01-17 17:00:00 11.8 12 Noroeste 18 Noroeste 0 -- -- 46
2020-01-17 16:00:00 12.2 10 Oeste 18 Oeste 0 -- -- 40
2020-01-17 15:00:00 13.6 12 Noroeste 24 Noroeste 0 -- -- 36
2020-01-17 14:00:00 13 13 Noroeste 21 Oeste 0 -- -- 35
2020-01-17 13:00:00 12.4 7 Oeste 15 Sudoeste 0 -- -- 35
2020-01-17 12:00:00 11.7 6 Oeste 12 Noroeste 0 -- -- 36
2020-01-17 11:00:00 10.8 7 Oeste 12 Oeste 0 -- -- 39
2020-01-17 10:00:00 11 0 Calma 11 Noroeste 0 -- -- 38
2020-01-17 09:00:00 6.2 8 Noroeste 20 Sudeste 0 -- -- 55
2020-01-17 08:00:00 7.4 7 Nordeste 31 Nordeste 0 -- -- 58
2020-01-17 07:00:00 6.1 8 Sur 30 Nordeste 0 -- -- 46
2020-01-17 06:00:00 5.9 4 Sur 10 Sur 0 -- -- 46
2020-01-17 05:00:00 4.7 3 Noroeste 9 Nordeste 0 -- -- 50
2020-01-17 04:00:00 5.2 5 Este 17 Sur 0 -- -- 50
2020-01-17 03:00:00 4.7 5 Este 10 Este 0 -- -- 53
2020-01-17 02:00:00 4.8 4 Oeste 6 Oeste 0 -- -- 53
2020-01-17 01:00:00 4.1 2 Norte 8 Noroeste 0 -- -- 58
2020-01-17 00:00:00 3.7 5 Norte 9 Nordeste 0 -- -- 59
2020-01-16 23:00:00 3.9 6 Norte 12 Norte 0 -- -- 58
2020-01-16 22:00:00 4 5 Norte 12 Norte 0 -- -- 57
2020-01-16 21:00:00 3.5 7 Norte 12 Norte 0 -- -- 64
2020-01-16 20:00:00 3.3 8 Norte 13 Norte 0 -- -- 69
2020-01-16 19:00:00 3.5 10 Norte 20 Noroeste 0 -- -- 58
2020-01-16 18:00:00 7.6 17 Noroeste 27 Noroeste 0 -- -- 49
2020-01-16 17:00:00 10 19 Noroeste 36 Noroeste 0 -- -- 42
2020-01-16 16:00:00 10.5 21 Noroeste 32 Noroeste 0 -- -- 39
2020-01-16 15:00:00 9.8 20 Noroeste 33 Noroeste 0 -- -- 42
2020-01-16 14:00:00 10.3 22 Noroeste 34 Noroeste 0 -- -- 37
2020-01-16 13:00:00 9.2 17 Noroeste 27 Noroeste 0 -- -- 39
2020-01-16 12:00:00 8.7 15 Noroeste 24 Noroeste 0 -- -- 41
2020-01-16 11:00:00 8.2 14 Noroeste 22 Noroeste 0 -- -- 41
2020-01-16 10:00:00 8.1 5 Noroeste 10 Noroeste 0 -- -- 40
2020-01-16 09:00:00 4.8 3 Este 6 Este 0 -- -- 46
2020-01-16 08:00:00 4 5 Sudeste 7 Este 0 -- -- 47
2020-01-16 07:00:00 4.2 5 Sudeste 6 Sudeste 0 -- -- 48
2020-01-16 06:00:00 4.5 4 Sudeste 6 Este 0 -- -- 48
2020-01-16 05:00:00 4.6 4 Sudeste 9 Nordeste 0 -- -- 48
2020-01-16 04:00:00 2.7 6 Nordeste 10 Nordeste 0 -- -- 58
2020-01-16 03:00:00 3 6 Nordeste 13 Norte 0 -- -- 60
2020-01-16 02:00:00 3.3 7 Norte 14 Norte 0 -- -- 61
2020-01-16 01:00:00 3.4 13 Norte 17 Norte 0 -- -- 60
2020-01-16 00:00:00 3.3 7 Nordeste 9 Nordeste 0 -- -- 60
2020-01-15 23:00:00 4.1 4 Este 8 Este 0 -- -- 62
2020-01-15 22:00:00 4.1 5 Sudeste 7 Sudeste 0 -- -- 63
2020-01-15 21:00:00 4.3 4 Sudeste 6 Este 0 -- -- 64
2020-01-15 20:00:00 4.2 2 Sudeste 7 Sudeste 0 -- -- 79
2020-01-15 19:00:00 4.4 0 Calma 5 Noroeste 0 -- -- 76
2020-01-15 18:00:00 7.4 6 Noroeste 17 Noroeste 0 -- -- 66
2020-01-15 17:00:00 10.1 11 Noroeste 19 Noroeste 0 -- -- 54
2020-01-15 16:00:00 9.9 8 Oeste 18 Noroeste 0 -- -- 47
2020-01-15 15:00:00 10 10 Noroeste 18 Oeste 0 -- -- 47
2020-01-15 14:00:00 10 11 Noroeste 18 Oeste 0 -- -- 39
2020-01-15 13:00:00 10.3 6 Sudoeste 19 Sur 0 -- -- 34
2020-01-15 12:00:00 9.1 8 Oeste 13 Oeste 0 -- -- 35
2020-01-15 11:00:00 9.4 4 Sudoeste 9 Sudoeste 0 -- -- 31
2020-01-15 10:00:00 8.3 3 Noroeste 10 Norte 0 -- -- 26
2020-01-15 09:00:00 5.2 3 Norte 5 Noroeste 0 -- -- 24
2020-01-15 08:00:00 5.3 3 Norte 7 Norte 0 -- -- 24
2020-01-15 07:00:00 4.8 0 Calma 5 Noroeste 0 -- -- 25
2020-01-15 06:00:00 5.2 0 Calma 14 Norte 0 -- -- 22
2020-01-15 05:00:00 5.4 3 Sudeste 13 Noroeste 0 -- -- 25
2020-01-15 04:00:00 5.1 3 Noroeste 9 Sudeste 0 -- -- 25
2020-01-15 03:00:00 3.9 6 Norte 9 Noroeste 0 -- -- 40
2020-01-15 02:00:00 4.2 3 Norte 8 Noroeste 0 -- -- 34
2020-01-15 01:00:00 5.6 6 Sudeste 8 Sudeste 0 -- -- 28
2020-01-15 00:00:00 5.2 3 Noroeste 5 Noroeste 0 -- -- 29
2020-01-14 23:00:00 4.5 2 Norte 9 Norte 0 -- -- 48
2020-01-14 22:00:00 4.2 7 Norte 12 Norte 0 -- -- 53
2020-01-14 21:00:00 4.5 4 Norte 10 Norte 0 -- -- 55
2020-01-14 20:00:00 5.1 3 Norte 8 Norte 0 -- -- 62
2020-01-14 19:00:00 4.2 5 Noroeste 8 Norte 0 -- -- 74
2020-01-14 18:00:00 5.6 5 Noroeste 17 Noroeste 0 -- -- 73
2020-01-14 17:00:00 10.5 12 Noroeste 23 Norte 0 -- -- 47
2020-01-14 16:00:00 11.2 18 Noroeste 25 Noroeste 0 -- -- 36
2020-01-14 15:00:00 9.8 12 Noroeste 23 Noroeste 0 -- -- 39
2020-01-14 14:00:00 10 16 Noroeste 27 Noroeste 0 -- -- 30
2020-01-14 13:00:00 9.5 13 Noroeste 19 Noroeste 0 -- -- 27
2020-01-14 12:00:00 9.1 5 Noroeste 14 Noroeste 0 -- -- 28
2020-01-14 11:00:00 9 8 Noroeste 15 Noroeste 0 -- -- 25
2020-01-14 10:00:00 9.1 3 Noroeste 6 Noroeste 0 -- -- 20
2020-01-14 09:00:00 4.5 5 Noroeste 9 Noroeste 0 -- -- 19
2020-01-14 08:00:00 4.7 5 Norte 15 Norte 0 -- -- 15
2020-01-14 07:00:00 4.9 11 Norte 14 Norte 0 -- -- 16
2020-01-14 06:00:00 5.2 4 Norte 6 Norte 0 -- -- 19
2020-01-14 05:00:00 6.4 3 Nordeste 13 Norte 0 -- -- 13
2020-01-14 04:00:00 5.8 6 Noroeste 16 Norte 0 -- -- 18
2020-01-14 03:00:00 5.7 13 Norte 17 Norte 0 -- -- 23
2020-01-14 02:00:00 5.6 11 Norte 14 Norte 0 -- -- 24
2020-01-14 01:00:00 5.5 7 Norte 12 Norte 0 -- -- 26
2020-01-14 00:00:00 5.5 9 Norte 14 Norte 0 -- -- 27
2020-01-13 23:00:00 7 0 Calma 4 Nordeste 0 -- -- 16
2020-01-13 22:00:00 6.8 0 Calma 6 Este 0 -- -- 16
2020-01-13 21:00:00 6.9 3 Sudeste 9 Sudeste 0 -- -- 20
2020-01-13 20:00:00 7 3 Sudeste 7 Este 0 -- -- 35
2020-01-13 19:00:00 4.9 2 Norte 8 Sudeste 0 -- -- 74
2020-01-13 18:00:00 6.8 5 Sudeste 9 Norte 0 -- -- 63
2020-01-13 17:00:00 8.6 4 Noroeste 15 Noroeste 0 -- -- 58
2020-01-13 16:00:00 10.1 11 Noroeste 23 Noroeste 0 -- -- 52
2020-01-13 15:00:00 10.5 17 Noroeste 24 Noroeste 0 -- -- 41
2020-01-13 14:00:00 10.4 13 Noroeste 23 Noroeste 0 -- -- 35
2020-01-13 13:00:00 9.5 14 Noroeste 22 Norte 0 -- -- 34
2020-01-13 12:00:00 8.9 11 Noroeste 17 Noroeste 0 -- -- 37
2020-01-13 11:00:00 7.6 9 Noroeste 15 Noroeste 0 -- -- 41
2020-01-13 10:00:00 7.1 5 Noroeste 14 Norte 0 -- -- 36
2020-01-13 09:00:00 1.7 9 Norte 15 Norte 0 -- -- 48
2020-01-13 08:00:00 1.1 11 Norte 16 Norte 0 -- -- 50
2020-01-13 07:00:00 1.3 12 Norte 17 Norte 0 -- -- 54
2020-01-13 06:00:00 1.9 13 Norte 19 Norte 0 -- -- 57
2020-01-13 05:00:00 1.4 12 Norte 16 Norte 0 -- -- 65
2020-01-13 04:00:00 0.8 8 Norte 12 Norte 0 -- -- 68
2020-01-13 03:00:00 0.9 4 Norte 8 Nordeste 0 -- -- 65
2020-01-13 02:00:00 2 2 Norte 4 Nordeste 0 -- -- 61
2020-01-13 01:00:00 2.6 3 Sudeste 6 Sudoeste 0 -- -- 58
2020-01-13 00:00:00 2.7 4 Sur 8 Sudoeste 0 -- -- 60
2020-01-12 23:00:00 3.6 2 Este 5 Este 0 -- -- 52
2020-01-12 22:00:00 2.8 0 Calma 4 Sudoeste 0 -- -- 73
2020-01-12 21:00:00 3.1 0 Calma 6 Sudeste 0 -- -- 72
2020-01-12 20:00:00 3.2 3 Nordeste 9 Este 0 -- -- 74
2020-01-12 19:00:00 2.7 3 Sudeste 6 Sudeste 0 -- -- 90
2020-01-12 18:00:00 6.9 3 Sudoeste 14 Noroeste 0 -- -- 64
2020-01-12 17:00:00 8.6 8 Noroeste 18 Noroeste 0 -- -- 63
2020-01-12 16:00:00 8.8 12 Noroeste 25 Oeste 0 -- -- 61
2020-01-12 15:00:00 9.5 14 Noroeste 26 Noroeste 0 -- -- 51
2020-01-12 14:00:00 8.5 14 Noroeste 26 Noroeste 0 -- -- 45
2020-01-12 13:00:00 9.6 13 Noroeste 22 Noroeste 0 -- -- 42
2020-01-12 12:00:00 7.7 12 Noroeste 18 Noroeste 0 -- -- 36
2020-01-12 11:00:00 7.4 4 Noroeste 8 Oeste 0 -- -- 41
2020-01-12 10:00:00 8 0 Calma 4 Norte 0 -- -- 27
2020-01-12 09:00:00 2.5 3 Norte 8 Norte 0 -- -- 40
2020-01-12 08:00:00 1.3 0 Calma 4 Nordeste 0 -- -- 55
2020-01-12 07:00:00 1.3 0 Calma 8 Nordeste 0 -- -- 58
2020-01-12 06:00:00 0.2 5 Nordeste 8 Nordeste 0 -- -- 73
2020-01-12 05:00:00 0.4 4 Nordeste 8 Nordeste 0 -- -- 82
2020-01-12 04:00:00 1.5 2 Nordeste 6 Nordeste 0 -- -- 73
2020-01-12 03:00:00 1.4 3 Este 5 Este 0 -- -- 78
2020-01-12 02:00:00 1 0 Calma 4 Este 0 -- -- 84
2020-01-12 01:00:00 1.2 0 Calma 5 Este 0 -- -- 81
2020-01-12 00:00:00 1.4 3 Este 4 Nordeste 0 -- -- 81
2020-01-11 23:00:00 1.5 2 Este 6 Sudeste 0 -- -- 81
2020-01-11 22:00:00 1.2 3 Sudeste 5 Sudeste 0 -- -- 86
2020-01-11 21:00:00 1.3 0 Calma 5 Sur 0 -- -- 83
2020-01-11 20:00:00 1.5 3 Sudoeste 8 Sudoeste 0 -- -- 82
2020-01-11 19:00:00 2.3 0 Calma 3 Sudoeste 0 -- -- 85
2020-01-11 18:00:00 3.7 0 Calma 10 Sudoeste 0 -- -- 73
2020-01-11 17:00:00 4.5 3 Sudoeste 11 Sur 0 -- -- 73
2020-01-11 16:00:00 4.5 6 Sur 14 Sudoeste 0 -- -- 73
2020-01-11 15:00:00 5.1 6 Sur 18 Sur 0 -- -- 72
2020-01-11 14:00:00 7.5 7 Sur 18 Sur 0 -- -- 62
2020-01-11 13:00:00 7.1 9 Sur 22 Sur 0 -- -- 63
2020-01-11 12:00:00 7.3 5 Sur 18 Sudoeste 0 -- -- 60
2020-01-11 11:00:00 5.7 8 Sur 19 Sur 0 -- -- 65
2020-01-11 10:00:00 6 5 Sur 12 Sur 0 -- -- 60
2020-01-11 09:00:00 2.3 4 Sudeste 9 Sudeste 0 -- -- 73
2020-01-11 08:00:00 2 5 Este 15 Sudeste 0 -- -- 70
2020-01-11 07:00:00 1.1 8 Sur 14 Sur 0 -- -- 77
2020-01-11 06:00:00 0.7 6 Sudeste 10 Sudeste 0 -- -- 81
2020-01-11 05:00:00 0.5 2 Sudeste 18 Sudeste 0 -- -- 79
2020-01-11 04:00:00 1.9 7 Sudeste 24 Sudeste 0 -- -- 68
2020-01-11 03:00:00 2.1 8 Este 23 Este 0 -- -- 67
2020-01-11 02:00:00 2.2 14 Este 22 Este 0 -- -- 63
2020-01-11 01:00:00 2.2 14 Este 28 Este 0 -- -- 56
2020-01-11 00:00:00 2.3 5 Este 35 Este 0 -- -- 49
2020-01-10 23:00:00 2.2 11 Sudeste 23 Sudeste 0 -- -- 57
2020-01-10 22:00:00 2.3 3 Norte 17 Sudeste 0 -- -- 68
2020-01-10 21:00:00 3.4 9 Norte 49 Nordeste 0 -- -- 60
2020-01-10 20:00:00 3.8 21 Nordeste 39 Este 0 -- -- 57
2020-01-10 19:00:00 3.8 4 Este 28 Este 0 -- -- 56
2020-01-10 18:00:00 4.4 14 Este 35 Nordeste 0 -- -- 54
2020-01-10 17:00:00 9.6 9 Nordeste 24 Este 0 -- -- 37
2020-01-10 16:00:00 8.4 15 Nordeste 32 Nordeste 0 -- -- 39
2020-01-10 15:00:00 10.2 10 Sur 19 Sur 0 -- -- 47
2020-01-10 14:00:00 9.6 11 Sudoeste 21 Sur 0 -- -- 48
2020-01-10 13:00:00 10 8 Sudoeste 18 Sudoeste 0 -- -- 47
2020-01-10 12:00:00 9 8 Sudoeste 16 Sudoeste 0 -- -- 45
2020-01-10 11:00:00 10.3 7 Sur 15 Sur 0 -- -- 41
2020-01-10 10:00:00 9.5 5 Sur 11 Sur 0 -- -- 38
2020-01-10 09:00:00 5.7 0 Calma 6 Este 0 -- -- 48
2020-01-10 08:00:00 4.7 3 Norte 6 Norte 0 -- -- 51
2020-01-10 07:00:00 4.4 3 Nordeste 12 Norte 0 -- -- 51
2020-01-10 06:00:00 6.6 3 Sudeste 21 Este 0 -- -- 43
2020-01-10 05:00:00 8.4 10 Nordeste 35 Nordeste 0 -- -- 43
2020-01-10 04:00:00 8.3 28 Nordeste 37 Nordeste 0 -- -- 31
2020-01-10 03:00:00 6 3 Noroeste 13 Nordeste 0 -- -- 53
2020-01-10 02:00:00 4.3 4 Noroeste 13 Norte 0 -- -- 70
2020-01-10 01:00:00 2.5 9 Noroeste 21 Noroeste 0 -- -- 94
2020-01-10 00:00:00 4.1 9 Norte 17 Noroeste 0 -- -- 75
2020-01-09 23:00:00 5.3 3 Este 13 Nordeste 0 -- -- 74
2020-01-09 22:00:00 6.3 6 Oeste 13 Sudoeste 0 -- -- 62
2020-01-09 21:00:00 6.2 6 Norte 42 Norte 0 -- -- 59
2020-01-09 20:00:00 7.9 22 Norte 37 Norte 0 -- -- 49
2020-01-09 19:00:00 3.8 3 Sudoeste 13 Sudeste 0 -- -- 89
2020-01-09 18:00:00 4.5 5 Sudeste 13 Nordeste 0 -- -- 86
2020-01-09 17:00:00 4.9 12 Norte 21 Noroeste 0 -- -- 84
2020-01-09 16:00:00 8.3 15 Noroeste 25 Noroeste 0 -- -- 69
2020-01-09 15:00:00 10 12 Noroeste 20 Noroeste 0 -- -- 61
2020-01-09 14:00:00 8.2 11 Noroeste 17 Noroeste 0 -- -- 67
2020-01-09 13:00:00 7.8 5 Sudoeste 13 Sur 0 -- -- 72
2020-01-09 12:00:00 5.4 6 Oeste 12 Noroeste 0 -- -- 80
2020-01-09 11:00:00 6.2 4 Noroeste 8 Noroeste 0 -- -- 71
2020-01-09 10:00:00 6.3 0 Calma 5 Oeste 0 -- -- 60
2020-01-09 09:00:00 3.6 0 Calma 3 Sudoeste 0 -- -- 59
2020-01-09 08:00:00 3.3 3 Sudeste 6 Sudeste 0 -- -- 55
2020-01-09 07:00:00 3.6 0 Calma 7 Sur 0 -- -- 61
2020-01-09 06:00:00 3.4 5 Sudoeste 8 Sudoeste 0 -- -- 58
2020-01-09 05:00:00 4.6 0 Calma 6 Sudeste 0 -- -- 52
2020-01-09 04:00:00 4.9 2 Este 5 Este 0 -- -- 53
2020-01-09 03:00:00 4.8 3 Nordeste 4 Nordeste 0 -- -- 55
2020-01-09 02:00:00 4.5 3 Sudeste 6 Sudeste 0 -- -- 51
2020-01-09 01:00:00 5 3 Sudeste 10 Sur 0 -- -- 53
2020-01-09 00:00:00 4.3 7 Sur 13 Sur 0 -- -- 65
2020-01-08 23:00:00 4.7 7 Sur 17 Sudoeste 0 -- -- 63
2020-01-08 22:00:00 4.8 8 Sur 16 Sudeste 0 -- -- 59
2020-01-08 21:00:00 4.5 4 Sur 9 Sudeste 0 -- -- 62
2020-01-08 20:00:00 5.9 6 Sudeste 10 Sudeste 0 -- -- 71
2020-01-08 19:00:00 5.8 4 Sudeste 8 Noroeste 0 -- -- 68
2020-01-08 18:00:00 8.9 7 Noroeste 14 Noroeste 0 -- -- 62
2020-01-08 17:00:00 11.6 13 Noroeste 20 Noroeste 0 -- -- 47
2020-01-08 16:00:00 13.5 13 Noroeste 21 Noroeste 0 -- -- 35
2020-01-08 15:00:00 13.4 11 Oeste 19 Oeste 0 -- -- 28
2020-01-08 14:00:00 13.9 10 Oeste 18 Oeste 0 -- -- 24
2020-01-08 13:00:00 13.9 9 Noroeste 18 Oeste 0 -- -- 23
2020-01-08 12:00:00 14.2 6 Noroeste 12 Noroeste 0 -- -- 22
2020-01-08 11:00:00 12.8 6 Oeste 12 Norte 0 -- -- 26
2020-01-08 10:00:00 12.7 10 Noroeste 13 Noroeste 0 -- -- 26
2020-01-08 09:00:00 8.5 9 Norte 12 Norte 0 -- -- 29
2020-01-08 08:00:00 7.8 3 Norte 5 Noroeste 0 -- -- 30
2020-01-08 07:00:00 8.2 0 Calma 6 Sur 0 -- -- 20
2020-01-08 06:00:00 7.9 3 Este 8 Noroeste 0 -- -- 21
2020-01-08 05:00:00 7.3 5 Noroeste 9 Norte 0 -- -- 31
2020-01-08 04:00:00 7.8 5 Norte 8 Norte 0 -- -- 28
2020-01-08 03:00:00 8.8 3 Nordeste 9 Sudeste 0 -- -- 20
2020-01-08 02:00:00 8 6 Norte 11 Norte 0 -- -- 26
2020-01-08 01:00:00 8.1 3 Norte 8 Norte 0 -- -- 25
2020-01-08 00:00:00 7.9 3 Oeste 12 Noroeste 0 -- -- 37
2020-01-07 23:00:00 7.8 5 Norte 10 Noroeste 0 -- -- 33
2020-01-07 22:00:00 7.9 3 Norte 8 Nordeste 0 -- -- 33
2020-01-07 21:00:00 7.6 7 Norte 9 Norte 0 -- -- 37
2020-01-07 20:00:00 8.4 2 Norte 6 Noroeste 0 -- -- 34
2020-01-07 19:00:00 8.2 0 Calma 4 Noroeste 0 -- -- 37
2020-01-07 18:00:00 11.2 4 Norte 8 Oeste 0 -- -- 44
2020-01-07 17:00:00 12.7 4 Noroeste 16 Oeste 0 -- -- 38
2020-01-07 16:00:00 12.4 9 Oeste 14 Oeste 0 -- -- 34
2020-01-07 15:00:00 14.2 4 Oeste 13 Oeste 0 -- -- 34
2020-01-07 14:00:00 13.4 8 Oeste 15 Sudoeste 0 -- -- 30
2020-01-07 13:00:00 13.8 7 Sudoeste 17 Sudoeste 0 -- -- 21
2020-01-07 12:00:00 14.2 7 Sur 14 Sur 0 -- -- 20
2020-01-07 11:00:00 13.3 7 Sur 11 Sur 0 -- -- 21
2020-01-07 10:00:00 12.6 0 Calma 8 Sur 0 -- -- 23
2020-01-07 09:00:00 7.7 3 Sudeste 8 Sudeste 0 -- -- 26
2020-01-07 08:00:00 6.9 3 Sudeste 9 Sur 0 -- -- 27
2020-01-07 07:00:00 6.1 6 Sur 13 Sur 0 -- -- 29
2020-01-07 06:00:00 6.5 6 Sur 12 Sur 0 -- -- 28
2020-01-07 05:00:00 6.5 3 Sur 11 Sudeste 0 -- -- 30
2020-01-07 04:00:00 6.8 3 Sur 9 Sur 0 -- -- 28
2020-01-07 03:00:00 6.5 2 Este 8 Este 0 -- -- 31
2020-01-07 02:00:00 6.6 0 Calma 3 Nordeste 0 -- -- 28
2020-01-07 01:00:00 6.6 0 Calma 4 Nordeste 0 -- -- 27
2020-01-07 00:00:00 7.3 0 Calma 9 Sudoeste 0 -- -- 27
2020-01-06 23:00:00 6.5 4 Sur 9 Sur 0 -- -- 21
2020-01-06 22:00:00 6.9 3 Sur 8 Sur 0 -- -- 22
2020-01-06 21:00:00 6.1 6 Sur 12 Sur 0 -- -- 26
2020-01-06 20:00:00 7.3 4 Sudeste 9 Sudeste 0 -- -- 27
2020-01-06 19:00:00 6 5 Sudeste 8 Sudeste 0 -- -- 45
2020-01-06 18:00:00 10.9 0 Calma 8 Sudoeste 0 -- -- 35
2020-01-06 17:00:00 11.9 4 Noroeste 13 Noroeste 0 -- -- 36
2020-01-06 16:00:00 11.9 5 Oeste 14 Oeste 0 -- -- 29
2020-01-06 15:00:00 12.1 7 Noroeste 17 Oeste 0 -- -- 31
2020-01-06 14:00:00 10.9 11 Noroeste 17 Noroeste 0 -- -- 39
2020-01-06 13:00:00 10.9 8 Sudoeste 16 Sudoeste 0 -- -- 29
2020-01-06 12:00:00 11.3 7 Sur 14 Sudoeste 0 -- -- 27
2020-01-06 11:00:00 11.1 5 Sudoeste 10 Oeste 0 -- -- 25
2020-01-06 10:00:00 10.1 3 Sudoeste 11 Sudeste 0 -- -- 21